Time;durP1;ratioP1;P1;durP2;ratioP2;P2;SDS_P1;SDS_P2;PMS_P1;PMS_P2;Temp;Humidity;BMP_temperature;BMP_pressure;BME280_temperature;BME280_humidity;BME280_pressure;Samples;Min_cycle;Max_cycle;Signal;HPM_P1;HPM_P2
2022/12/14 00:01:22;;;;;;;9.43;7.33;;;-2.60;99.90;;;;;;6181554;23;20402;-58
2022/12/14 00:03:52;;;;;;;11.20;8.30;;;-2.60;99.90;;;;;;6180962;23;20401;-63
2022/12/14 00:06:22;;;;;;;14.33;7.57;;;-2.60;99.90;;;;;;6180369;23;20406;-63
2022/12/14 00:08:52;;;;;;;17.93;6.17;;;-2.70;99.90;;;;;;6180279;23;20413;-62
2022/12/14 00:11:22;;;;;;;8.30;6.67;;;-2.70;99.90;;;;;;6180668;23;20438;-62
2022/12/14 00:13:51;;;;;;;12.17;7.67;;;-2.70;99.90;;;;;;6180758;23;20390;-62
2022/12/14 00:16:18;;;;;;;14.73;8.70;;;-2.70;99.90;;;;;;6180535;23;20449;-63
2022/12/14 00:18:49;;;;;;;12.87;6.67;;;-2.70;99.90;;;;;;6180620;23;20382;-62
2022/12/14 00:21:17;;;;;;;17.70;7.23;;;-2.70;99.90;;;;;;6180882;23;20410;-62
2022/12/14 00:23:46;;;;;;;16.33;6.77;;;-2.70;99.90;;;;;;6181408;23;20412;-63
2022/12/14 00:26:14;;;;;;;12.50;5.67;;;-2.70;99.90;;;;;;6179975;23;20402;-62
2022/12/14 00:28:42;;;;;;;17.53;9.50;;;-2.70;99.90;;;;;;6173403;23;20414;-64
2022/12/14 00:31:10;;;;;;;10.03;6.27;;;-2.70;99.90;;;;;;6180191;23;20446;-63
2022/12/14 00:33:37;;;;;;;15.07;8.90;;;-2.70;99.90;;;;;;6180311;23;20437;-62
2022/12/14 00:36:05;;;;;;;13.07;8.23;;;-2.70;99.90;;;;;;6180551;23;20417;-59
2022/12/14 00:38:32;;;;;;;9.23;5.83;;;-2.70;99.90;;;;;;6180900;23;20426;-61
2022/12/14 00:41:00;;;;;;;9.50;5.00;;;-2.80;99.90;;;;;;6180770;23;20720;-63
2022/12/14 00:43:27;;;;;;;5.90;4.87;;;-2.70;99.90;;;;;;6180280;23;20409;-62
2022/12/14 00:45:55;;;;;;;6.10;5.50;;;-2.70;99.90;;;;;;6181681;23;20386;-62
2022/12/14 00:48:23;;;;;;;8.53;6.50;;;-2.80;99.90;;;;;;6179972;23;20406;-61
2022/12/14 00:50:51;;;;;;;10.40;8.17;;;-2.80;99.90;;;;;;6182609;23;20436;-62
2022/12/14 00:53:19;;;;;;;13.40;8.17;;;-2.80;99.90;;;;;;6181920;23;20413;-63
2022/12/14 00:55:47;;;;;;;12.53;6.60;;;-2.80;99.90;;;;;;6182219;23;20425;-58
2022/12/14 00:58:17;;;;;;;9.97;6.33;;;-2.80;99.90;;;;;;6182950;23;20416;-63
2022/12/14 01:00:44;;;;;;;16.53;7.07;;;-2.80;99.90;;;;;;6182593;23;20406;-62
2022/12/14 01:03:12;;;;;;;13.93;5.10;;;-2.90;99.90;;;;;;6182555;23;20401;-63
2022/12/14 01:05:39;;;;;;;8.07;4.03;;;-2.90;99.90;;;;;;6181306;23;20413;-60
2022/12/14 01:08:07;;;;;;;11.60;6.67;;;-2.90;99.90;;;;;;6181961;23;20444;-58
2022/12/14 01:10:37;;;;;;;12.67;6.93;;;-2.90;99.90;;;;;;6181714;23;20446;-60
2022/12/14 01:13:05;;;;;;;10.27;9.10;;;-3.00;99.90;;;;;;6181825;23;20429;-64
2022/12/14 01:15:34;;;;;;;13.60;8.77;;;-3.00;99.90;;;;;;6182181;23;20413;-59
2022/12/14 01:18:02;;;;;;;4.97;3.93;;;-3.00;99.90;;;;;;6181992;23;20409;-62
2022/12/14 01:20:29;;;;;;;13.40;6.47;;;-3.00;99.90;;;;;;6181806;23;20401;-61
2022/12/14 01:22:56;;;;;;;10.17;5.83;;;-3.10;99.90;;;;;;6181830;23;20386;-62
2022/12/14 01:25:23;;;;;;;9.70;6.23;;;-3.10;99.90;;;;;;6182781;23;20385;-62
2022/12/14 01:27:50;;;;;;;10.53;7.10;;;-3.10;99.90;;;;;;6182167;23;20398;-62
2022/12/14 01:30:18;;;;;;;14.43;8.63;;;-3.20;99.90;;;;;;6181630;23;20455;-60
2022/12/14 01:32:46;;;;;;;12.03;7.90;;;-3.30;99.90;;;;;;6182847;23;20390;-62
2022/12/14 01:35:13;;;;;;;8.40;5.10;;;-3.20;99.90;;;;;;6183024;23;20410;-59
2022/12/14 01:37:40;;;;;;;10.10;5.10;;;-3.30;99.90;;;;;;6182747;23;20390;-61
2022/12/14 01:40:08;;;;;;;8.40;6.10;;;-3.30;99.90;;;;;;6182277;23;20402;-62
2022/12/14 01:42:36;;;;;;;8.07;6.53;;;-3.30;99.90;;;;;;6182714;23;20410;-62
2022/12/14 01:45:05;;;;;;;10.27;7.23;;;-3.30;99.90;;;;;;6182215;23;20402;-63
2022/12/14 01:47:40;;;;;;;9.03;5.90;;;-3.40;99.90;;;;;;6177650;23;20445;-62
2022/12/14 01:50:22;;;;;;;13.93;7.77;;;-3.30;99.90;;;;;;6181868;23;20681;-63
2022/12/14 01:52:54;;;;;;;7.90;6.00;;;-3.30;99.90;;;;;;6182823;23;20422;-61
2022/12/14 01:55:24;;;;;;;12.80;6.50;;;-3.30;99.90;;;;;;6182515;23;20378;-62
2022/12/14 01:57:54;;;;;;;10.77;6.17;;;-3.30;99.90;;;;;;6176760;23;20410;-63
2022/12/14 02:00:21;;;;;;;13.57;6.93;;;-3.40;99.90;;;;;;6182963;23;20389;-61
2022/12/14 02:02:53;;;;;;;21.37;8.10;;;-3.40;99.90;;;;;;6183558;23;20469;-63
2022/12/14 02:05:23;;;;;;;6.70;5.20;;;-3.50;99.90;;;;;;6182367;23;20398;-60
2022/12/14 02:07:52;;;;;;;11.90;6.90;;;-3.40;99.90;;;;;;6182235;23;20370;-59
2022/12/14 02:10:20;;;;;;;12.87;6.10;;;-3.50;99.90;;;;;;6182985;23;20414;-61
2022/12/14 02:12:52;;;;;;;5.97;4.77;;;-3.50;99.90;;;;;;6183214;23;20397;-58
2022/12/14 02:15:19;;;;;;;9.10;4.63;;;-3.50;99.90;;;;;;6182610;23;20433;-57
2022/12/14 02:17:47;;;;;;;12.30;7.07;;;-3.50;99.90;;;;;;6182722;23;20424;-61
2022/12/14 02:20:16;;;;;;;28.43;6.00;;;-3.60;99.90;;;;;;6182755;23;20397;-61
2022/12/14 02:23:21;;;;;;;13.03;6.50;;;-3.60;99.90;;;;;;6183429;23;20397;-57
2022/12/14 02:26:36;;;;;;;10.47;5.20;;;-3.70;99.90;;;;;;6183303;23;20381;-60
2022/12/14 02:29:22;;;;;;;11.33;6.20;;;-3.60;99.90;;;;;;6183136;23;20417;-59
2022/12/14 02:32:02;;;;;;;9.60;5.70;;;-3.70;99.90;;;;;;6183018;23;20425;-57
2022/12/14 02:34:40;;;;;;;10.90;6.33;;;-3.60;99.90;;;;;;6183557;23;20390;-63
2022/12/14 02:37:15;;;;;;;9.43;7.17;;;-3.70;99.90;;;;;;6176600;23;20848;-63
2022/12/14 02:39:52;;;;;;;9.60;5.20;;;-3.70;99.90;;;;;;6182628;23;20378;-62
2022/12/14 02:42:32;;;;;;;18.87;9.27;;;-3.70;99.90;;;;;;6178060;23;20381;-62
2022/12/14 02:45:09;;;;;;;12.57;9.30;;;-3.80;99.90;;;;;;6182642;23;20425;-62
2022/12/14 02:47:43;;;;;;;12.00;7.27;;;-3.80;99.90;;;;;;6181746;23;20389;-63
2022/12/14 02:50:20;;;;;;;10.70;6.43;;;-3.70;99.90;;;;;;6182310;23;20429;-62
2022/12/14 02:52:53;;;;;;;10.03;5.50;;;-3.10;99.90;;;;;;6182181;23;20389;-63
2022/12/14 02:55:24;;;;;;;13.93;8.90;;;-3.70;99.90;;;;;;6182050;23;20406;-62
2022/12/14 02:57:56;;;;;;;6.13;5.17;;;-3.80;99.90;;;;;;6180126;23;20409;-63
2022/12/14 03:00:27;;;;;;;10.87;6.70;;;-3.80;99.90;;;;;;6181450;23;20406;-62
2022/12/14 03:02:57;;;;;;;11.20;5.80;;;-2.90;99.90;;;;;;6181742;23;20391;-62
2022/12/14 03:05:24;;;;;;;8.33;4.97;;;-3.80;99.90;;;;;;6180531;23;20401;-62
2022/12/14 03:07:54;;;;;;;17.03;8.30;;;-3.80;99.90;;;;;;6175819;23;20398;-60
2022/12/14 03:10:28;;;;;;;10.43;5.47;;;-3.80;99.90;;;;;;6181373;23;20374;-59
2022/12/14 03:13:01;;;;;;;7.20;5.70;;;-3.80;99.90;;;;;;6174651;23;20472;-62
2022/12/14 03:15:30;;;;;;;16.13;6.80;;;-3.80;99.90;;;;;;6180666;23;20382;-61
2022/12/14 03:18:01;;;;;;;11.40;6.97;;;-3.90;99.90;;;;;;6181674;23;20421;-61
2022/12/14 03:20:32;;;;;;;20.37;6.47;;;-3.90;99.90;;;;;;6182270;23;20375;-61
2022/12/14 03:23:06;;;;;;;7.30;6.47;;;-3.90;99.90;;;;;;6181343;23;20370;-60
2022/12/14 03:25:39;;;;;;;16.30;5.97;;;-3.90;99.90;;;;;;6181408;23;20374;-61
2022/12/14 03:28:11;;;;;;;7.37;4.07;;;-3.90;99.90;;;;;;6180365;23;20398;-63
2022/12/14 03:30:43;;;;;;;6.37;5.27;;;-3.90;99.90;;;;;;6181245;23;20366;-61
2022/12/14 03:33:13;;;;;;;7.27;5.23;;;-3.90;99.90;;;;;;6180759;23;20382;-61
2022/12/14 03:35:45;;;;;;;11.43;4.57;;;-4.00;99.90;;;;;;6181199;23;20422;-61
2022/12/14 03:38:19;;;;;;;9.07;6.30;;;-4.00;99.90;;;;;;6181416;23;20402;-61
2022/12/14 03:40:52;;;;;;;9.77;5.60;;;-4.00;99.90;;;;;;6181951;23;20425;-61
2022/12/14 03:43:30;;;;;;;8.87;5.57;;;-4.00;99.90;;;;;;6180993;23;20378;-62
2022/12/14 03:46:11;;;;;;;14.87;5.13;;;-4.00;99.90;;;;;;6181066;23;20409;-62
2022/12/14 03:48:43;;;;;;;11.57;6.10;;;-4.00;99.90;;;;;;6181004;23;20409;-62
2022/12/14 03:51:17;;;;;;;7.97;7.17;;;-4.00;99.90;;;;;;6181145;23;20441;-61
2022/12/14 03:53:51;;;;;;;11.57;8.07;;;-4.10;99.90;;;;;;6181339;23;20402;-62
2022/12/14 03:56:27;;;;;;;29.13;4.63;;;-4.00;99.90;;;;;;6181280;23;20397;-60
2022/12/14 03:59:01;;;;;;;7.43;4.83;;;-4.10;99.90;;;;;;6181143;23;20420;-61
2022/12/14 04:01:42;;;;;;;5.53;4.77;;;-4.10;99.90;;;;;;6181372;23;20391;-62
2022/12/14 04:04:15;;;;;;;11.50;6.20;;;-4.20;99.90;;;;;;6181673;23;20425;-61
2022/12/14 04:06:48;;;;;;;14.53;6.07;;;-4.20;99.90;;;;;;6180538;23;20400;-62
2022/12/14 04:09:30;;;;;;;6.60;5.00;;;-4.20;99.90;;;;;;6180378;23;20425;-62
2022/12/14 04:20:33;;;;;;;14.23;5.60;;;-4.20;99.90;;;;;;6180652;23;20421;-62
2022/12/14 04:23:07;;;;;;;19.10;6.43;;;-4.20;99.90;;;;;;6182237;23;20386;-60
2022/12/14 04:31:26;;;;;;;7.63;4.40;;;-4.20;99.90;;;;;;6181557;23;20517;-58
2022/12/14 04:33:57;;;;;;;8.70;4.80;;;-4.10;99.90;;;;;;6181918;23;20384;-62
2022/12/14 04:36:28;;;;;;;6.10;4.53;;;-4.40;99.90;;;;;;6182047;23;20406;-62
2022/12/14 04:38:59;;;;;;;7.77;5.50;;;-4.40;99.90;;;;;;6182677;23;20378;-61
2022/12/14 04:41:32;;;;;;;9.37;6.37;;;-4.40;99.90;;;;;;6182565;23;20386;-60
2022/12/14 04:44:03;;;;;;;11.80;5.97;;;-4.40;99.90;;;;;;6183964;23;20436;-61
2022/12/14 04:46:32;;;;;;;9.13;5.70;;;-4.40;99.90;;;;;;6182571;23;20390;-63
2022/12/14 04:49:04;;;;;;;9.03;5.00;;;-4.30;99.90;;;;;;6176594;23;20430;-60
2022/12/14 04:51:36;;;;;;;10.30;7.27;;;-4.40;99.90;;;;;;6182988;23;20687;-61
2022/12/14 04:54:08;;;;;;;6.33;5.50;;;-4.40;99.90;;;;;;6182995;23;20366;-60
2022/12/14 04:56:43;;;;;;;8.63;5.60;;;-4.40;99.90;;;;;;6183466;23;20374;-62
2022/12/14 04:59:10;;;;;;;5.40;3.93;;;-4.40;99.90;;;;;;6181774;23;20481;-63
2022/12/14 05:01:48;;;;;;;12.80;5.57;;;-4.50;99.90;;;;;;6181818;23;20430;-63
2022/12/14 05:04:30;;;;;;;11.30;4.33;;;-4.50;99.90;;;;;;6182509;23;20402;-61
2022/12/14 05:07:08;;;;;;;3.20;2.40;;;-4.50;99.90;;;;;;6181862;23;20448;-61
2022/12/14 05:09:41;;;;;;;16.03;5.53;;;-4.50;99.90;;;;;;6181311;23;20547;-62
2022/12/14 05:12:13;;;;;;;7.80;6.40;;;-4.50;99.90;;;;;;6181302;23;20458;-63
2022/12/14 05:14:44;;;;;;;14.73;5.90;;;-4.50;99.90;;;;;;6181174;23;20393;-62
2022/12/14 05:17:11;;;;;;;9.50;6.00;;;-4.50;99.90;;;;;;6181725;23;20426;-63
2022/12/14 05:19:44;;;;;;;14.50;7.30;;;-4.50;99.90;;;;;;6180888;23;20402;-63
2022/12/14 05:22:15;;;;;;;16.20;8.37;;;-4.50;99.90;;;;;;6181591;23;20387;-60
2022/12/14 05:24:42;;;;;;;10.13;5.47;;;-4.50;99.90;;;;;;6178005;23;20400;-61
2022/12/14 05:27:08;;;;;;;9.07;5.57;;;-4.50;99.90;;;;;;6176563;23;20402;-62
2022/12/14 05:29:37;;;;;;;13.87;6.97;;;-4.50;99.90;;;;;;6181941;23;20420;-58
2022/12/14 05:32:04;;;;;;;6.63;4.43;;;-4.50;99.90;;;;;;6181112;23;20437;-62
2022/12/14 05:34:31;;;;;;;7.10;5.10;;;-4.60;99.90;;;;;;6181061;23;20429;-61
2022/12/14 05:37:00;;;;;;;16.23;5.83;;;-4.60;99.90;;;;;;6181038;23;20442;-61
2022/12/14 05:39:26;;;;;;;5.87;5.13;;;-4.60;99.90;;;;;;6178991;23;20406;-62
2022/12/14 05:41:53;;;;;;;8.33;5.80;;;-4.50;99.90;;;;;;6182458;23;20408;-62
2022/12/14 05:44:23;;;;;;;12.00;5.50;;;-4.60;99.90;;;;;;6182344;23;20413;-59
2022/12/14 05:46:51;;;;;;;9.40;5.80;;;-4.70;99.90;;;;;;6181507;23;20433;-62
2022/12/14 05:49:17;;;;;;;19.13;5.37;;;-4.70;99.90;;;;;;6181723;23;20416;-62
2022/12/14 05:51:44;;;;;;;9.70;6.00;;;-4.70;99.90;;;;;;6181623;23;20449;-63
2022/12/14 05:54:15;;;;;;;9.57;6.20;;;-4.60;99.90;;;;;;6175800;23;20402;-62
2022/12/14 05:56:42;;;;;;;9.33;6.20;;;-4.60;99.90;;;;;;6181369;23;20441;-61
2022/12/14 05:59:14;;;;;;;8.40;5.33;;;-4.60;99.90;;;;;;6181846;23;20386;-60
2022/12/14 06:01:41;;;;;;;13.10;8.13;;;-4.60;99.90;;;;;;6181800;23;20429;-62
2022/12/14 06:04:08;;;;;;;6.10;3.90;;;-4.60;99.90;;;;;;6182138;23;20720;-63
2022/12/14 06:06:35;;;;;;;6.53;4.37;;;-4.60;99.90;;;;;;6174063;23;20405;-65
2022/12/14 06:09:04;;;;;;;9.10;4.80;;;-4.50;99.90;;;;;;6182549;23;20429;-62
2022/12/14 06:11:36;;;;;;;18.63;8.03;;;-4.50;99.90;;;;;;6176819;23;20429;-62
2022/12/14 06:14:03;;;;;;;12.97;7.17;;;-4.50;99.90;;;;;;6182082;23;20426;-61
2022/12/14 06:16:30;;;;;;;11.07;6.27;;;-4.50;99.90;;;;;;6182539;23;20370;-57
2022/12/14 06:18:58;;;;;;;14.27;7.10;;;-4.60;99.90;;;;;;6181841;23;20413;-61
2022/12/14 06:21:27;;;;;;;9.33;5.70;;;-4.60;99.90;;;;;;6181787;23;20402;-61
2022/12/14 06:23:55;;;;;;;12.00;7.20;;;-4.60;99.90;;;;;;6176839;23;20403;-60
2022/12/14 06:26:23;;;;;;;28.60;6.40;;;-4.60;99.90;;;;;;6177018;23;20448;-62
2022/12/14 06:28:51;;;;;;;13.60;5.57;;;-4.70;99.90;;;;;;6181183;23;20418;-63
2022/12/14 06:31:20;;;;;;;8.97;5.63;;;-4.60;99.90;;;;;;6181443;23;20440;-60
2022/12/14 06:33:48;;;;;;;44.97;6.50;;;-4.60;99.90;;;;;;6181794;23;20402;-62
2022/12/14 06:36:21;;;;;;;12.80;7.23;;;-4.60;99.90;;;;;;6182308;23;20396;-61
2022/12/14 06:38:48;;;;;;;7.97;4.57;;;-4.60;99.90;;;;;;6181404;23;20406;-62
2022/12/14 06:41:17;;;;;;;10.50;6.43;;;-4.60;99.90;;;;;;6182196;23;20393;-62
2022/12/14 06:43:44;;;;;;;7.17;4.67;;;-4.60;99.90;;;;;;6177909;23;20441;-60
2022/12/14 06:46:14;;;;;;;7.03;4.70;;;-4.60;99.90;;;;;;6181527;23;20417;-62
2022/12/14 06:48:41;;;;;;;14.73;6.30;;;-4.60;99.90;;;;;;6180688;23;20436;-62
2022/12/14 06:51:11;;;;;;;9.00;7.40;;;-4.50;99.90;;;;;;6181827;23;20402;-62
2022/12/14 06:53:38;;;;;;;5.13;4.60;;;-4.50;99.90;;;;;;6182253;23;20457;-62
2022/12/14 06:56:07;;;;;;;15.70;6.40;;;-4.60;99.90;;;;;;6182090;23;20406;-58
2022/12/14 06:58:34;;;;;;;13.20;5.43;;;-4.50;99.90;;;;;;6180707;23;20425;-62
2022/12/14 07:01:02;;;;;;;11.97;5.70;;;-4.50;99.90;;;;;;6181894;23;20400;-60
2022/12/14 07:03:31;;;;;;;6.50;5.00;;;-4.50;99.90;;;;;;6181038;23;20401;-61
2022/12/14 07:05:58;;;;;;;14.40;5.37;;;-4.50;99.90;;;;;;6181660;23;20426;-62
2022/12/14 07:08:25;;;;;;;6.90;3.60;;;-4.40;99.90;;;;;;6181651;23;20409;-59
2022/12/14 07:10:52;;;;;;;11.33;6.23;;;-4.50;99.90;;;;;;6181192;23;20458;-62
2022/12/14 07:13:19;;;;;;;12.07;6.13;;;-4.40;99.90;;;;;;6180912;23;20418;-62
2022/12/14 07:15:51;;;;;;;11.50;7.37;;;-4.40;99.90;;;;;;6176901;23;20401;-62
2022/12/14 07:18:18;;;;;;;12.67;8.03;;;-4.40;99.90;;;;;;6180135;23;20448;-62
2022/12/14 07:20:55;;;;;;;12.93;7.17;;;-4.40;99.90;;;;;;6180361;23;20406;-62
2022/12/14 07:23:25;;;;;;;11.23;5.27;;;-4.40;99.90;;;;;;6180655;23;20451;-62
2022/12/14 07:25:52;;;;;;;13.20;6.63;;;-4.50;99.90;;;;;;6181512;23;20393;-62
2022/12/14 07:28:23;;;;;;;7.37;5.63;;;-4.50;99.90;;;;;;6181349;23;20414;-60
2022/12/14 07:30:55;;;;;;;9.87;6.47;;;-4.40;99.90;;;;;;6181637;23;20413;-62
2022/12/14 07:33:22;;;;;;;9.07;4.47;;;-4.40;99.90;;;;;;6181724;23;20423;-62
2022/12/14 07:35:50;;;;;;;8.67;6.10;;;-4.40;99.90;;;;;;6180859;23;20386;-61
2022/12/14 07:38:17;;;;;;;10.27;8.27;;;-4.40;99.90;;;;;;6181191;23;20415;-63
2022/12/14 07:40:45;;;;;;;13.50;4.80;;;-4.50;99.90;;;;;;6181113;23;20425;-63
2022/12/14 07:43:11;;;;;;;9.20;4.17;;;-4.30;99.90;;;;;;6181862;23;20406;-63
2022/12/14 07:45:40;;;;;;;6.63;4.80;;;-4.40;99.90;;;;;;6173113;23;20422;-60
2022/12/14 07:48:07;;;;;;;19.53;5.70;;;-4.40;99.90;;;;;;6181564;23;20406;-62
2022/12/14 07:50:34;;;;;;;13.00;6.43;;;-4.40;99.90;;;;;;6181274;23;20444;-65
2022/12/14 07:53:03;;;;;;;11.47;6.00;;;-4.40;99.90;;;;;;6181712;23;20441;-62
2022/12/14 07:55:29;;;;;;;3.50;2.93;;;-4.40;99.90;;;;;;6180856;23;20393;-58
2022/12/14 07:57:56;;;;;;;15.23;5.37;;;-4.40;99.90;;;;;;6181208;23;20429;-59
2022/12/14 08:00:23;;;;;;;11.90;4.00;;;-4.40;99.90;;;;;;6181901;23;20410;-65
2022/12/14 08:02:50;;;;;;;15.40;6.00;;;-4.40;99.90;;;;;;6181362;23;20414;-62
2022/12/14 08:05:17;;;;;;;14.00;4.70;;;-4.40;99.90;;;;;;6180685;23;20438;-60
2022/12/14 08:07:46;;;;;;;10.13;5.73;;;-4.30;99.90;;;;;;6181379;23;20417;-62
2022/12/14 08:10:14;;;;;;;12.13;6.93;;;-4.30;99.90;;;;;;6181241;23;20433;-61
2022/12/14 08:12:41;;;;;;;9.57;6.73;;;-4.30;99.90;;;;;;6180633;23;20426;-59
2022/12/14 08:15:14;;;;;;;13.27;6.30;;;-4.30;99.90;;;;;;6181900;23;20430;-63
2022/12/14 08:17:40;;;;;;;9.47;6.90;;;-4.30;99.90;;;;;;6181385;23;20374;-60
2022/12/14 08:20:09;;;;;;;14.93;5.70;;;-4.30;99.90;;;;;;6181602;23;20430;-61
2022/12/14 08:22:36;;;;;;;14.10;4.80;;;-4.20;99.90;;;;;;6173937;23;20416;-58
2022/12/14 08:25:06;;;;;;;14.70;8.30;;;-4.20;99.90;;;;;;6180850;23;20426;-61
2022/12/14 08:27:35;;;;;;;5.20;3.73;;;-4.20;99.90;;;;;;6175037;23;20386;-63
2022/12/14 08:30:02;;;;;;;10.03;6.57;;;-4.10;99.90;;;;;;6180209;23;20425;-62
2022/12/14 08:32:30;;;;;;;13.50;5.73;;;-4.20;99.90;;;;;;6180497;23;20446;-63
2022/12/14 08:34:57;;;;;;;14.43;6.60;;;-4.20;99.90;;;;;;6180240;23;20408;-61
2022/12/14 08:37:24;;;;;;;14.83;6.20;;;-4.20;99.90;;;;;;6180778;23;20452;-62
2022/12/14 08:39:51;;;;;;;15.83;6.50;;;-4.10;99.90;;;;;;6179899;23;20385;-60
2022/12/14 08:42:18;;;;;;;13.13;4.87;;;-4.00;99.90;;;;;;6179395;23;20445;-62
2022/12/14 08:44:46;;;;;;;8.53;5.53;;;-4.00;99.90;;;;;;6181439;23;20413;-63
2022/12/14 08:47:13;;;;;;;10.57;5.03;;;-4.00;99.90;;;;;;6181773;23;20394;-61
2022/12/14 08:49:40;;;;;;;16.93;6.50;;;-4.00;99.90;;;;;;6181741;23;20440;-62
2022/12/14 08:52:07;;;;;;;17.43;7.33;;;-4.00;99.90;;;;;;6180366;23;20401;-62
2022/12/14 08:54:36;;;;;;;8.97;5.87;;;-4.00;99.90;;;;;;6181422;23;20436;-62
2022/12/14 08:57:04;;;;;;;24.43;4.87;;;-3.90;99.90;;;;;;6181649;23;20425;-60
2022/12/14 08:59:31;;;;;;;13.63;5.00;;;-3.90;99.90;;;;;;6181262;23;20413;-61
2022/12/14 09:02:02;;;;;;;9.03;4.60;;;-3.80;99.90;;;;;;6181900;23;20425;-62
2022/12/14 09:04:29;;;;;;;3.83;3.47;;;-3.70;99.90;;;;;;6181769;23;20435;-63
2022/12/14 09:06:57;;;;;;;10.20;5.70;;;-3.70;99.90;;;;;;6182146;23;20412;-61
2022/12/14 09:09:24;;;;;;;17.87;7.10;;;-3.60;99.90;;;;;;6183238;23;20398;-63
2022/12/14 09:11:51;;;;;;;11.10;6.40;;;-3.60;99.90;;;;;;6183783;23;20417;-62
2022/12/14 09:14:18;;;;;;;11.00;5.03;;;-3.50;99.90;;;;;;6183019;23;20468;-59
2022/12/14 09:16:45;;;;;;;13.80;7.60;;;-3.50;99.90;;;;;;6182657;23;20426;-59
2022/12/14 09:19:13;;;;;;;9.70;6.97;;;-3.40;99.90;;;;;;6183480;23;20385;-60
2022/12/14 09:21:43;;;;;;;12.83;6.37;;;-3.30;99.90;;;;;;6178280;23;20406;-62
2022/12/14 09:24:10;;;;;;;14.47;6.27;;;-3.30;99.90;;;;;;6183027;23;20370;-62
2022/12/14 09:26:40;;;;;;;12.90;6.80;;;-3.40;99.90;;;;;;6183572;23;20406;-60
2022/12/14 09:29:07;;;;;;;7.13;6.10;;;-3.30;99.90;;;;;;6184187;23;20413;-61
2022/12/14 09:31:36;;;;;;;9.87;6.07;;;-2.50;99.90;;;;;;6183278;23;20389;-61
2022/12/14 09:34:03;;;;;;;9.80;5.20;;;-4.10;99.90;;;;;;6182606;23;20481;-63
2022/12/14 09:36:32;;;;;;;12.07;5.87;;;-3.10;99.90;;;;;;6182392;23;20382;-61
2022/12/14 09:38:59;;;;;;;12.07;9.23;;;-3.00;99.90;;;;;;6182996;23;20456;-62
2022/12/14 09:41:46;;;;;;;12.50;6.03;;;-2.90;99.90;;;;;;6183105;23;20374;-62
2022/12/14 09:44:18;;;;;;;16.83;8.87;;;-2.80;99.90;;;;;;6183586;23;20378;-61
2022/12/14 09:46:54;;;;;;;11.30;5.73;;;-2.70;99.90;;;;;;6183602;23;20390;-66
2022/12/14 09:49:26;;;;;;;12.20;6.97;;;-2.50;99.90;;;;;;6183351;23;20448;-62
2022/12/14 09:51:58;;;;;;;9.43;7.17;;;-2.40;99.90;;;;;;6183136;23;20390;-62
2022/12/14 09:54:31;;;;;;;12.73;7.77;;;-2.40;99.90;;;;;;6182921;23;20426;-61
2022/12/14 09:57:04;;;;;;;12.20;6.50;;;-2.30;99.90;;;;;;6182690;23;20430;-65
2022/12/14 09:59:34;;;;;;;13.07;6.63;;;-2.20;99.90;;;;;;6182254;23;20398;-61
2022/12/14 10:02:18;;;;;;;12.03;6.87;;;-2.20;99.90;;;;;;6182009;23;20429;-61
2022/12/14 10:04:59;;;;;;;7.07;4.90;;;-2.20;99.90;;;;;;6182477;23;20415;-57
2022/12/14 10:07:40;;;;;;;14.03;8.93;;;-2.20;99.90;;;;;;6182892;23;20424;-62
2022/12/14 10:10:18;;;;;;;21.10;8.90;;;-1.90;99.90;;;;;;6182861;23;20469;-61
2022/12/14 10:12:55;;;;;;;13.67;7.10;;;-1.70;99.90;;;;;;6182302;23;20421;-59
2022/12/14 10:15:28;;;;;;;16.60;8.23;;;-1.30;99.90;;;;;;6183180;23;20370;-57
2022/12/14 10:18:27;;;;;;;10.13;6.40;;;-1.00;99.90;;;;;;6182497;23;20374;-57
2022/12/14 10:21:01;;;;;;;9.33;6.27;;;-0.80;99.90;;;;;;6182877;23;20386;-61
2022/12/14 10:23:30;;;;;;;19.43;8.33;;;-0.60;99.90;;;;;;6182920;23;20370;-62
2022/12/14 10:26:06;;;;;;;16.60;7.83;;;-0.50;99.90;;;;;;6183544;23;20443;-61
2022/12/14 10:28:49;;;;;;;13.30;6.17;;;-0.60;99.90;;;;;;6183072;23;20397;-60
2022/12/14 10:31:26;;;;;;;12.60;6.50;;;-0.60;99.90;;;;;;6183505;23;20425;-61
2022/12/14 10:34:02;;;;;;;13.40;7.30;;;-0.70;99.90;;;;;;6182733;23;20457;-60
2022/12/14 10:36:34;;;;;;;9.13;5.63;;;-0.80;99.90;;;;;;6183152;23;20410;-63
2022/12/14 10:39:07;;;;;;;13.50;7.37;;;-0.80;99.90;;;;;;6182798;23;20397;-57
2022/12/14 10:41:38;;;;;;;16.80;8.00;;;-0.80;99.90;;;;;;6182924;23;20415;-61
2022/12/14 10:44:15;;;;;;;13.63;8.33;;;-0.80;99.90;;;;;;6182683;23;20434;-61
2022/12/14 10:46:50;;;;;;;12.90;7.17;;;-0.80;99.90;;;;;;6183596;23;20408;-61
2022/12/14 10:49:22;;;;;;;14.87;7.40;;;-0.90;99.90;;;;;;6182052;23;20445;-58
2022/12/14 10:51:52;;;;;;;10.57;4.80;;;-1.00;99.90;;;;;;6182536;23;20382;-56
2022/12/14 10:54:29;;;;;;;18.40;8.30;;;-1.00;99.90;;;;;;6181963;23;20481;-61
2022/12/14 10:56:56;;;;;;;6.97;6.27;;;-1.00;99.90;;;;;;6183054;23;20397;-58
2022/12/14 10:59:29;;;;;;;11.23;6.53;;;-1.00;99.90;;;;;;6182478;23;20430;-62
2022/12/14 11:02:11;;;;;;;15.63;7.87;;;-1.00;99.90;;;;;;6182946;23;20430;-61
2022/12/14 11:04:44;;;;;;;10.63;6.77;;;-1.00;99.90;;;;;;6178079;23;20429;-59
2022/12/14 11:07:14;;;;;;;12.10;7.37;;;-1.00;99.90;;;;;;6182309;23;20386;-58
2022/12/14 11:09:44;;;;;;;18.83;7.50;;;-1.00;99.90;;;;;;6182013;23;20398;-61
2022/12/14 11:12:23;;;;;;;10.53;6.10;;;-1.00;99.90;;;;;;6181661;23;20374;-63
2022/12/14 11:14:55;;;;;;;9.37;4.63;;;-1.10;99.90;;;;;;6182583;23;20426;-62
2022/12/14 11:17:36;;;;;;;11.23;7.30;;;-1.10;99.90;;;;;;6182660;23;20421;-55
2022/12/14 11:20:13;;;;;;;20.07;8.60;;;-1.10;99.90;;;;;;6183056;23;20369;-60
2022/12/14 11:22:47;;;;;;;12.40;6.87;;;-1.10;99.90;;;;;;6182636;23;20429;-64
2022/12/14 11:25:35;;;;;;;11.87;7.60;;;-1.00;99.90;;;;;;6182072;23;20398;-62
2022/12/14 11:28:05;;;;;;;11.07;5.57;;;-1.00;99.90;;;;;;6182106;23;20409;-60
2022/12/14 11:30:32;;;;;;;12.50;7.40;;;-1.00;99.90;;;;;;6175569;23;20394;-62
2022/12/14 11:32:59;;;;;;;8.33;6.30;;;-0.90;99.90;;;;;;6181164;23;20461;-62
2022/12/14 11:35:26;;;;;;;10.80;6.07;;;-0.90;99.90;;;;;;6182381;23;20414;-61
2022/12/14 11:37:59;;;;;;;10.93;8.70;;;-0.90;99.90;;;;;;6181686;23;20402;-60
2022/12/14 11:40:29;;;;;;;9.03;6.07;;;-0.80;99.90;;;;;;6182379;23;20374;-62
2022/12/14 11:43:03;;;;;;;11.33;6.53;;;-0.80;99.90;;;;;;6178367;23;20386;-63
2022/12/14 11:45:32;;;;;;;13.30;8.43;;;-0.70;99.90;;;;;;6182231;23;20466;-64
2022/12/14 11:48:27;;;;;;;10.00;6.80;;;-0.70;99.90;;;;;;6182198;23;20386;-65
2022/12/14 11:51:07;;;;;;;12.73;7.07;;;-0.70;99.90;;;;;;6115053;23;20417;-62
2022/12/14 11:53:34;;;;;;;10.37;6.30;;;-0.70;99.90;;;;;;6181808;23;20453;-62
2022/12/14 11:56:04;;;;;;;9.17;6.63;;;-0.70;99.90;;;;;;6182031;23;20421;-62
2022/12/14 11:58:42;;;;;;;13.83;7.50;;;-0.70;99.90;;;;;;6182022;23;20430;-62
2022/12/14 12:01:14;;;;;;;16.10;6.60;;;-0.70;99.90;;;;;;6181634;23;20425;-64
2022/12/14 12:03:44;;;;;;;10.40;4.57;;;-0.60;99.90;;;;;;6176339;23;20428;-62
2022/12/14 12:06:14;;;;;;;13.97;8.77;;;-0.60;99.90;;;;;;6182196;23;20390;-63
2022/12/14 12:08:44;;;;;;;13.47;8.27;;;-0.60;99.90;;;;;;6182775;23;20397;-62
2022/12/14 12:11:16;;;;;;;13.73;6.97;;;-0.60;99.90;;;;;;6182055;23;20401;-63
2022/12/14 12:13:47;;;;;;;19.60;8.10;;;-0.60;99.90;;;;;;6182166;23;20422;-61
2022/12/14 12:16:17;;;;;;;12.67;6.47;;;-0.50;99.90;;;;;;6181830;23;20388;-64
2022/12/14 12:18:52;;;;;;;13.33;7.33;;;-0.50;99.90;;;;;;6181510;23;20452;-63
2022/12/14 12:21:24;;;;;;;12.10;6.87;;;-0.50;99.90;;;;;;6182052;23;20382;-63
2022/12/14 12:23:57;;;;;;;13.03;7.30;;;-0.40;99.90;;;;;;6181698;23;20426;-62
2022/12/14 12:26:28;;;;;;;9.87;6.07;;;-0.30;99.90;;;;;;6181405;23;20386;-62
2022/12/14 12:29:04;;;;;;;14.10;8.90;;;-0.30;99.90;;;;;;6181975;23;20470;-62
2022/12/14 12:31:34;;;;;;;20.80;9.23;;;-0.30;99.90;;;;;;6180743;23;20372;-57
2022/12/14 12:34:04;;;;;;;11.40;6.23;;;-0.30;99.90;;;;;;6183489;23;20414;-61
2022/12/14 12:36:32;;;;;;;10.23;5.93;;;-0.30;99.90;;;;;;6177273;23;20457;-62
2022/12/14 12:39:03;;;;;;;9.40;7.13;;;-0.30;99.90;;;;;;6183584;23;20393;-63
2022/12/14 12:41:40;;;;;;;9.50;7.53;;;-0.30;99.90;;;;;;6184524;23;20414;-60
2022/12/14 12:44:19;;;;;;;16.93;7.27;;;-0.40;99.90;;;;;;6186062;23;20389;-60
2022/12/14 12:46:54;;;;;;;15.03;7.27;;;-0.40;99.90;;;;;;6186035;23;20413;-61
2022/12/14 12:49:21;;;;;;;15.20;7.33;;;-0.50;99.90;;;;;;6184589;23;20381;-59
2022/12/14 12:51:57;;;;;;;8.03;6.73;;;-0.60;99.90;;;;;;6185783;23;20450;-60
2022/12/14 12:54:31;;;;;;;14.97;6.20;;;-0.60;99.90;;;;;;6186019;23;20480;-60
2022/12/14 12:57:00;;;;;;;12.27;5.50;;;-0.70;99.90;;;;;;6185833;23;20488;-60
2022/12/14 12:59:36;;;;;;;22.17;9.40;;;-0.80;99.90;;;;;;6186292;23;20378;-61
2022/12/14 13:02:16;;;;;;;10.47;7.03;;;-0.80;99.90;;;;;;6185867;23;20392;-62
2022/12/14 13:04:46;;;;;;;13.87;6.20;;;-0.80;99.90;;;;;;6179708;23;20425;-64
2022/12/14 13:07:25;;;;;;;8.63;7.03;;;-0.80;99.90;;;;;;6185712;23;20405;-59
2022/12/14 13:09:58;;;;;;;12.37;6.07;;;-0.80;99.90;;;;;;6185392;23;20437;-64
2022/12/14 13:12:31;;;;;;;8.67;5.57;;;-0.80;99.90;;;;;;6185591;23;20386;-66
2022/12/14 13:15:07;;;;;;;13.97;8.10;;;-0.90;99.90;;;;;;6185336;23;20461;-63